Time;durP1;ratioP1;P1;durP2;ratioP2;P2;SDS_P1;SDS_P2;PMS_P1;PMS_P2;Temp;Humidity;BMP_temperature;BMP_pressure;BME280_temperature;BME280_humidity;BME280_pressure;Samples;Min_cycle;Max_cycle;Signal;HPM_P1;HPM_P2
2022/04/11 00:01:06;;;;;;;11.13;5.57;;;;;;;-1.12;79.77;94163.97;5031973;28;20111;-52
2022/04/11 00:03:33;;;;;;;19.20;9.02;;;;;;;-1.07;79.70;94154.88;5031947;28;20164;-50
2022/04/11 00:06:00;;;;;;;13.23;7.00;;;;;;;-1.04;79.73;94151.53;5032232;28;20038;-52
2022/04/11 00:08:27;;;;;;;11.40;6.07;;;;;;;-1.06;79.66;94159.16;5029892;28;20883;-52
2022/04/11 00:10:53;;;;;;;11.23;5.93;;;;;;;-1.07;79.51;94152.97;5031704;28;20045;-54
2022/04/11 00:13:21;;;;;;;12.18;5.95;;;;;;;-1.09;79.58;94149.03;5031825;28;20095;-53
2022/04/11 00:15:48;;;;;;;10.32;5.60;;;;;;;-1.16;80.26;94151.53;5031728;28;20041;-49
2022/04/11 00:18:14;;;;;;;12.25;5.95;;;;;;;-1.28;79.93;94149.59;5031516;28;20055;-47
2022/04/11 00:20:41;;;;;;;11.07;5.97;;;;;;;-1.34;80.24;94142.88;5031505;28;20046;-46
2022/04/11 00:23:08;;;;;;;9.45;5.57;;;;;;;-1.35;79.90;94144.75;5031333;28;20051;-48
2022/04/11 00:25:35;;;;;;;18.08;8.52;;;;;;;-1.28;80.25;94145.00;5031782;28;20045;-47
2022/04/11 00:28:02;;;;;;;22.48;10.52;;;;;;;-1.29;79.99;94148.00;5031140;28;20042;-49
2022/04/11 00:30:29;;;;;;;19.15;8.75;;;;;;;-1.24;80.13;94143.22;5031937;28;20037;-48
2022/04/11 00:32:55;;;;;;;17.23;8.77;;;;;;;-1.22;79.64;94142.88;5031645;28;20520;-47
2022/04/11 00:35:22;;;;;;;21.63;10.30;;;;;;;-1.19;80.13;94138.72;5031117;28;20079;-48
2022/04/11 00:37:49;;;;;;;20.63;9.82;;;;;;;-1.28;80.69;94138.84;5031446;28;20041;-48
2022/04/11 00:40:17;;;;;;;16.83;8.20;;;;;;;-1.27;80.59;94135.81;5031129;28;20553;-49
2022/04/11 00:42:43;;;;;;;12.57;7.13;;;;;;;-1.27;80.46;94122.34;5031345;28;20033;-48
2022/04/11 00:45:10;;;;;;;13.10;6.77;;;;;;;-1.26;80.36;94133.91;5031237;28;20058;-47
2022/04/11 00:47:37;;;;;;;12.15;6.63;;;;;;;-1.23;80.32;94122.44;5031439;28;20397;-47
2022/04/11 00:50:09;;;;;;;12.23;7.00;;;;;;;-1.21;80.15;94120.19;5030836;28;20057;-48
2022/04/11 00:52:39;;;;;;;15.75;6.53;;;;;;;-1.17;80.06;94114.94;5014110;28;20051;-50
2022/04/11 00:55:07;;;;;;;11.32;6.35;;;;;;;-1.17;80.27;94118.41;5029668;28;20116;-48
2022/04/11 00:57:34;;;;;;;10.07;6.20;;;;;;;-1.26;80.93;94106.97;5030904;28;20047;-56
2022/04/11 01:00:04;;;;;;;13.43;6.25;;;;;;;-1.28;80.93;94111.91;5029850;28;20048;-47
2022/04/11 01:02:31;;;;;;;13.15;6.45;;;;;;;-1.22;80.77;94115.94;5029149;28;20045;-52
2022/04/11 01:04:58;;;;;;;11.50;6.20;;;;;;;-1.33;80.78;94114.81;5031136;28;20095;-51
2022/04/11 01:07:26;;;;;;;23.08;9.25;;;;;;;-1.35;80.68;94109.75;5030645;28;20041;-48
2022/04/11 01:09:53;;;;;;;34.67;10.93;;;;;;;-1.54;81.53;94110.28;5030687;28;20041;-46
2022/04/11 01:12:22;;;;;;;28.35;10.55;;;;;;;-1.50;82.05;94102.34;5030378;28;20049;-52
2022/04/11 01:14:49;;;;;;;22.58;9.18;;;;;;;-1.56;81.65;94101.00;5030712;28;20045;-48
2022/04/11 01:17:15;;;;;;;17.52;7.50;;;;;;;-1.49;81.38;94098.53;5030444;28;20050;-49
2022/04/11 01:19:42;;;;;;;14.15;6.22;;;;;;;-1.49;81.21;94095.81;5030469;28;20045;-53
2022/04/11 01:22:10;;;;;;;11.80;5.87;;;;;;;-1.44;81.65;94101.00;5030350;28;20140;-50
2022/04/11 01:24:37;;;;;;;12.30;6.10;;;;;;;-1.39;81.52;94097.31;5030323;28;20486;-49
2022/04/11 01:27:04;;;;;;;12.63;6.28;;;;;;;-1.36;81.42;94092.03;5012899;28;20411;-47
2022/04/11 01:29:32;;;;;;;13.77;7.00;;;;;;;-1.34;81.20;94089.78;5024305;28;20071;-48
2022/04/11 01:32:03;;;;;;;15.57;7.43;;;;;;;-1.41;81.16;94087.66;5031147;28;20071;-46
2022/04/11 01:34:29;;;;;;;15.50;7.43;;;;;;;-1.36;81.38;94083.97;5029569;28;20635;-46
2022/04/11 01:36:57;;;;;;;14.57;7.10;;;;;;;-1.31;81.18;94086.44;5030192;28;20498;-46
2022/04/11 01:39:24;;;;;;;16.02;6.88;;;;;;;-1.37;81.64;94074.31;5029812;28;20045;-50
2022/04/11 01:41:51;;;;;;;12.27;6.75;;;;;;;-1.28;81.13;94068.81;5030093;28;20050;-54
2022/04/11 01:44:19;;;;;;;12.43;6.35;;;;;;;-1.32;81.38;94079.47;5029573;28;20055;-48
2022/04/11 01:46:46;;;;;;;12.27;6.50;;;;;;;-1.33;81.23;94080.59;5030211;28;20052;-48
2022/04/11 01:49:13;;;;;;;11.15;6.45;;;;;;;-1.36;81.67;94072.41;5029753;28;20116;-47
2022/04/11 01:51:40;;;;;;;13.98;6.65;;;;;;;-1.35;81.84;94072.06;5030090;28;20041;-48
2022/04/11 01:54:06;;;;;;;10.90;5.78;;;;;;;-1.32;81.77;94071.41;5044677;28;20048;-51
2022/04/11 01:56:33;;;;;;;10.68;6.50;;;;;;;-1.38;82.17;94072.75;5028804;28;20046;-49
2022/04/11 01:59:00;;;;;;;12.90;7.00;;;;;;;-1.42;82.24;94074.53;5029954;28;20050;-47
2022/04/11 02:01:27;;;;;;;12.07;6.88;;;;;;;-1.35;82.07;94066.69;5029290;28;20045;-50
2022/04/11 02:03:54;;;;;;;13.50;6.90;;;;;;;-1.35;81.79;94069.38;5029827;28;20053;-49
2022/04/11 02:06:20;;;;;;;14.68;7.30;;;;;;;-1.38;81.91;94059.28;5029381;28;20041;-48
2022/04/11 02:08:47;;;;;;;16.30;7.32;;;;;;;-1.40;82.35;94053.47;5029582;28;20037;-50
2022/04/11 02:11:14;;;;;;;16.13;8.30;;;;;;;-1.33;81.98;94045.59;5029528;28;20053;-48
2022/04/11 02:13:41;;;;;;;13.93;7.40;;;;;;;-1.31;81.81;94051.44;5029842;28;20033;-47
2022/04/11 02:16:08;;;;;;;13.70;7.53;;;;;;;-1.44;82.41;94052.56;5028316;28;20055;-50
2022/04/11 02:18:35;;;;;;;14.88;7.80;;;;;;;-1.38;82.43;94050.44;5029644;28;20037;-52
2022/04/11 02:21:02;;;;;;;18.35;8.52;;;;;;;-1.31;81.89;94045.25;5027910;28;20055;-45
2022/04/11 02:23:28;;;;;;;18.47;8.03;;;;;;;-1.31;82.32;94046.06;5029760;28;20048;-52
2022/04/11 02:25:55;;;;;;;19.15;9.43;;;;;;;-1.27;82.33;94038.06;5029785;28;20052;-52
2022/04/11 02:28:22;;;;;;;17.90;8.32;;;;;;;-1.20;81.93;94032.94;5029476;28;20417;-49
2022/04/11 02:30:48;;;;;;;14.63;7.72;;;;;;;-1.21;82.02;94034.84;5029547;28;20512;-48
2022/04/11 02:33:15;;;;;;;14.32;7.78;;;;;;;-1.28;82.59;94025.75;5029056;28;20045;-47
2022/04/11 02:35:42;;;;;;;15.70;7.60;;;;;;;-1.31;82.49;94021.03;5029381;28;20051;-51
2022/04/11 02:38:09;;;;;;;13.15;7.60;;;;;;;-1.45;82.89;94008.72;5029247;28;20049;-49
2022/04/11 02:40:36;;;;;;;13.98;7.05;;;;;;;-1.39;82.73;94011.94;5029578;28;20099;-49
2022/04/11 02:43:03;;;;;;;13.10;7.18;;;;;;;-1.58;83.65;94020.59;5027727;28;20056;-48
2022/04/11 02:45:29;;;;;;;11.43;6.80;;;;;;;-1.63;83.91;94010.03;5028384;28;20508;-49
2022/04/11 02:48:02;;;;;;;14.87;6.90;;;;;;;-1.61;84.04;94005.91;5027738;28;20505;-50
2022/04/11 02:50:29;;;;;;;15.57;6.70;;;;;;;-1.48;83.89;94000.53;5029494;28;20053;-54
2022/04/11 02:52:56;;;;;;;13.15;7.45;;;;;;;-1.35;83.24;94003.97;5029384;28;20099;-50
2022/04/11 02:55:23;;;;;;;12.65;6.95;;;;;;;-1.32;83.25;93992.56;5029158;28;20390;-47
2022/04/11 02:57:49;;;;;;;14.70;7.38;;;;;;;-1.37;83.03;93992.75;5027837;28;20053;-48
2022/04/11 03:00:17;;;;;;;15.90;7.13;;;;;;;-1.38;82.79;93985.81;5028940;28;20053;-51
2022/04/11 03:02:44;;;;;;;13.18;6.80;;;;;;;-1.29;82.57;93976.50;5029087;28;20432;-53
2022/04/11 03:05:11;;;;;;;14.50;6.95;;;;;;;-1.27;82.52;93971.56;5029086;28;20041;-50
2022/04/11 03:07:39;;;;;;;14.60;7.05;;;;;;;-1.39;82.58;93971.56;5029088;28;20112;-50
2022/04/11 03:10:07;;;;;;;14.50;7.03;;;;;;;-1.43;82.80;93959.91;5028772;28;20053;-53
2022/04/11 03:12:34;;;;;;;11.80;6.60;;;;;;;-1.44;82.79;93961.03;5028354;28;20045;-53
2022/04/11 03:15:02;;;;;;;12.73;6.72;;;;;;;-1.36;82.88;93964.75;5027908;28;20216;-46
2022/04/11 03:17:29;;;;;;;13.40;6.90;;;;;;;-1.32;82.75;93955.63;5028512;28;20375;-46
2022/04/11 03:19:56;;;;;;;14.00;6.72;;;;;;;-1.26;82.22;93956.19;5027546;28;20312;-50
2022/04/11 03:22:23;;;;;;;12.82;6.72;;;;;;;-1.34;82.38;93957.88;5028945;28;20045;-48
2022/04/11 03:24:49;;;;;;;12.50;7.20;;;;;;;-1.33;82.13;93948.66;5028867;28;20045;-53
2022/04/11 03:27:16;;;;;;;12.90;6.75;;;;;;;-1.31;82.04;93935.69;5027567;28;20049;-51
2022/04/11 03:29:43;;;;;;;13.05;6.63;;;;;;;-1.27;82.11;93935.75;5027178;28;20044;-50
2022/04/11 03:32:09;;;;;;;13.40;6.65;;;;;;;-1.24;81.92;93935.88;5029048;28;20058;-46
2022/04/11 03:34:36;;;;;;;13.32;6.70;;;;;;;-1.34;81.94;93936.34;5032752;28;20056;-51
2022/04/11 03:37:04;;;;;;;14.33;6.50;;;;;;;-1.12;81.32;93928.91;5030749;28;20049;-47
2022/04/11 03:39:30;;;;;;;12.45;6.20;;;;;;;-0.90;80.32;93922.22;5032654;28;20045;-49
2022/04/11 03:41:57;;;;;;;12.75;6.13;;;;;;;-0.74;78.92;93925.75;5032460;28;20041;-48
2022/04/11 03:44:24;;;;;;;12.45;5.90;;;;;;;-0.69;78.87;93932.78;5032045;28;20046;-48
2022/04/11 03:46:50;;;;;;;10.13;5.45;;;;;;;-0.66;78.08;93940.19;5032231;28;20041;-55
2022/04/11 03:49:17;;;;;;;11.80;5.67;;;;;;;-0.64;78.06;93930.63;5032171;28;20048;-52
2022/04/11 03:51:44;;;;;;;9.38;5.25;;;;;;;-0.65;78.33;93930.97;5030907;28;20041;-59
2022/04/11 03:54:11;;;;;;;12.48;6.70;;;;;;;-0.69;78.45;93935.47;5032064;28;20517;-47
2022/04/11 03:56:38;;;;;;;11.52;6.40;;;;;;;-0.87;78.06;93927.69;5031182;28;20037;-48
2022/04/11 03:59:04;;;;;;;13.77;6.70;;;;;;;-1.07;78.90;93921.34;5031467;28;20065;-46
2022/04/11 04:01:31;;;;;;;13.60;6.93;;;;;;;-1.56;81.45;93923.38;5031261;28;20044;-49
2022/04/11 04:03:58;;;;;;;11.52;6.57;;;;;;;-1.56;81.74;93923.38;5031809;28;20055;-51
2022/04/11 04:06:25;;;;;;;15.10;7.50;;;;;;;-1.48;81.35;93920.56;5031987;28;20052;-54
2022/04/11 04:08:51;;;;;;;14.60;7.80;;;;;;;-1.51;81.66;93921.25;5030813;28;20386;-47
2022/04/11 04:11:18;;;;;;;13.32;7.03;;;;;;;-1.53;82.05;93922.69;5031726;28;20046;-46
2022/04/11 04:13:45;;;;;;;11.33;6.00;;;;;;;-1.52;81.92;93918.88;5031769;28;20049;-59
2022/04/11 04:16:12;;;;;;;13.02;7.05;;;;;;;-1.53;82.38;93928.06;5031414;28;20046;-50
2022/04/11 04:18:39;;;;;;;15.57;7.13;;;;;;;-1.54;83.06;93927.28;5031848;28;20054;-48
2022/04/11 04:21:05;;;;;;;15.82;8.48;;;;;;;-1.59;83.05;93929.41;5031299;28;20059;-52
2022/04/11 04:23:32;;;;;;;17.50;9.35;;;;;;;-1.62;83.32;93928.19;5031997;28;20528;-51
2022/04/11 04:25:59;;;;;;;17.43;8.70;;;;;;;-1.58;83.04;93933.69;5031415;28;20052;-49
2022/04/11 04:28:25;;;;;;;15.63;8.40;;;;;;;-1.69;83.52;93930.66;5031288;28;20042;-47
2022/04/11 04:30:52;;;;;;;17.08;9.30;;;;;;;-1.67;83.10;93931.09;5031410;28;20045;-54
2022/04/11 04:33:19;;;;;;;16.08;8.90;;;;;;;-1.68;83.17;93943.00;5030990;28;20045;-47
2022/04/11 04:35:46;;;;;;;14.75;8.25;;;;;;;-1.79;83.80;93942.69;5031302;28;20053;-60
2022/04/11 04:38:13;;;;;;;15.57;8.00;;;;;;;-1.84;84.09;93943.66;5029775;28;20102;-47
2022/04/11 04:40:39;;;;;;;17.48;7.93;;;;;;;-1.79;84.28;93949.94;5031777;28;20041;-48
2022/04/11 04:43:08;;;;;;;15.20;7.70;;;;;;;-1.78;84.49;93955.00;5030160;28;20207;-48
2022/04/11 04:45:36;;;;;;;16.30;8.20;;;;;;;-1.77;84.49;93956.59;5031087;28;20041;-53
2022/04/11 04:48:08;;;;;;;18.52;8.57;;;;;;;-1.71;84.44;93943.66;5030328;28;20555;-49
2022/04/11 04:50:35;;;;;;;16.07;9.00;;;;;;;-1.73;84.27;93949.41;5031473;28;20454;-46
2022/04/11 04:53:02;;;;;;;14.52;8.23;;;;;;;-1.72;84.13;93942.09;5029480;28;20053;-46
2022/04/11 04:55:29;;;;;;;19.60;9.73;;;;;;;-1.75;84.13;93943.56;5031267;28;20042;-52
2022/04/11 04:57:55;;;;;;;18.63;9.38;;;;;;;-1.73;83.88;93937.84;5030752;28;20048;-52
2022/04/11 05:00:22;;;;;;;24.77;12.98;;;;;;;-1.74;83.98;93945.13;5027947;28;20045;-47
2022/04/11 05:02:49;;;;;;;24.13;11.33;;;;;;;-1.69;83.54;93944.09;5031458;28;20123;-49
2022/04/11 05:05:16;;;;;;;25.60;12.07;;;;;;;-1.71;83.59;93941.78;5029414;28;20072;-48
2022/04/11 05:07:43;;;;;;;27.50;14.45;;;;;;;-1.70;83.65;93943.34;5030984;28;20033;-53
2022/04/11 05:10:14;;;;;;;24.65;12.05;;;;;;;-1.84;83.31;93937.50;5030547;28;20042;-46
2022/04/11 05:12:44;;;;;;;315.35;95.38;;;;;;;-1.79;83.18;93937.31;5030920;28;20049;-47
2022/04/11 05:15:11;;;;;;;62.23;24.40;;;;;;;-1.97;83.52;93944.00;5029744;28;20049;-48
2022/04/11 05:17:38;;;;;;;44.53;19.30;;;;;;;-1.88;83.44;93942.00;5030739;28;20087;-56
2022/04/11 05:20:07;;;;;;;50.90;18.58;;;;;;;-1.81;83.26;93939.53;5030050;28;20037;-47
2022/04/11 05:22:34;;;;;;;26.55;11.35;;;;;;;-1.83;82.98;93944.47;5030641;28;20045;-47
2022/04/11 05:25:01;;;;;;;17.67;8.70;;;;;;;-1.82;82.93;93940.66;5030309;28;20048;-53
2022/04/11 05:27:28;;;;;;;17.23;8.63;;;;;;;-1.83;83.20;93928.34;5029924;28;20784;-47
2022/04/11 05:29:55;;;;;;;20.17;8.90;;;;;;;-1.83;83.51;93933.72;5030265;28;20064;-53
2022/04/11 05:32:22;;;;;;;16.13;8.57;;;;;;;-1.67;83.05;93931.91;5030018;28;20056;-51
2022/04/11 05:34:48;;;;;;;17.02;8.82;;;;;;;-1.58;82.73;93934.47;5012729;28;20051;-49
2022/04/11 05:37:15;;;;;;;17.02;8.45;;;;;;;-1.67;83.22;93931.91;5012142;28;20060;-54
2022/04/11 05:39:42;;;;;;;18.57;8.80;;;;;;;-1.54;82.91;93935.38;5030344;28;20055;-52
2022/04/11 05:42:09;;;;;;;18.10;8.70;;;;;;;-1.55;83.15;93943.78;5029340;28;20144;-50
2022/04/11 05:44:36;;;;;;;138.05;42.53;;;;;;;-1.58;82.95;93947.94;5030202;28;20037;-47
2022/04/11 05:47:03;;;;;;;45.13;18.30;;;;;;;-1.63;83.32;93946.25;5029350;28;20390;-50
2022/04/11 05:49:30;;;;;;;65.55;24.17;;;;;;;-1.73;83.45;93948.59;5030019;28;20045;-51
2022/04/11 05:51:56;;;;;;;28.27;12.83;;;;;;;-1.59;83.28;93943.66;5030003;28;20037;-49
2022/04/11 05:54:23;;;;;;;18.75;9.82;;;;;;;-1.47;83.18;93940.97;5029400;28;20045;-53
2022/04/11 05:56:50;;;;;;;18.45;10.63;;;;;;;-1.35;83.09;93940.16;5029962;28;20052;-48
2022/04/11 05:59:17;;;;;;;18.92;10.13;;;;;;;-1.25;82.91;93946.97;5029342;28;20517;-47
2022/04/11 06:01:44;;;;;;;22.08;10.43;;;;;;;-1.29;83.09;93946.09;5029960;28;20426;-48
2022/04/11 06:04:11;;;;;;;40.00;16.70;;;;;;;-1.27;83.07;93950.03;5029055;28;20057;-49
2022/04/11 06:06:38;;;;;;;21.77;11.13;;;;;;;-1.28;83.66;93950.38;5029809;28;20060;-54
2022/04/11 06:09:04;;;;;;;42.33;21.05;;;;;;;-1.05;83.28;93950.63;5027687;28;20410;-49
2022/04/11 06:11:32;;;;;;;23.30;11.18;;;;;;;-1.22;83.57;93947.09;5029881;28;20049;-52
2022/04/11 06:13:59;;;;;;;21.88;11.20;;;;;;;-1.02;82.94;93937.28;5029780;28;20040;-47
2022/04/11 06:16:25;;;;;;;23.67;11.07;;;;;;;-0.95;83.03;93936.69;5029377;28;20314;-46
2022/04/11 06:18:53;;;;;;;30.50;14.15;;;;;;;-0.72;82.96;93936.19;5029377;28;20100;-58
2022/04/11 06:21:20;;;;;;;29.30;13.52;;;;;;;-0.52;82.28;93937.88;5028921;28;20049;-53
2022/04/11 06:23:47;;;;;;;23.17;11.15;;;;;;;-0.34;81.46;93942.94;5037137;28;20055;-49
2022/04/11 06:26:14;;;;;;;22.25;11.23;;;;;;;-0.26;81.55;93942.81;5034554;28;20190;-50
2022/04/11 06:28:43;;;;;;;24.27;11.70;;;;;;;0.05;80.80;93940.47;5032153;28;20103;-50
2022/04/11 06:31:11;;;;;;;21.63;10.75;;;;;;;0.17;80.47;93943.84;5025348;28;20049;-52
2022/04/11 06:33:38;;;;;;;25.13;12.50;;;;;;;0.43;79.92;93949.88;5029191;28;20071;-48
2022/04/11 06:36:05;;;;;;;22.70;11.93;;;;;;;0.37;79.47;93952.81;5028660;28;20050;-48
2022/04/11 06:38:32;;;;;;;18.70;10.38;;;;;;;0.67;79.22;93935.38;5029218;28;20034;-50
2022/04/11 06:40:59;;;;;;;19.43;9.70;;;;;;;1.37;77.12;93939.94;5029207;28;20114;-51
2022/04/11 06:43:26;;;;;;;18.65;8.90;;;;;;;3.85;70.62;93940.94;5029575;28;20041;-51
2022/04/11 06:45:53;;;;;;;16.10;8.63;;;;;;;8.26;59.16;93933.75;5029766;28;20047;-52
2022/04/11 06:48:20;;;;;;;14.30;7.97;;;;;;;10.45;48.03;93937.06;5028950;28;20402;-52
2022/04/11 06:50:47;;;;;;;13.07;7.70;;;;;;;11.56;42.75;93934.44;5028396;28;20054;-52
2022/04/11 06:53:14;;;;;;;12.00;7.40;;;;;;;12.76;41.84;93934.34;5028933;28;20171;-52
2022/04/11 06:55:43;;;;;;;12.73;7.38;;;;;;;12.70;40.54;93928.56;5027772;28;20056;-51
2022/04/11 06:58:10;;;;;;;11.43;6.80;;;;;;;11.78;40.49;93930.09;5028771;28;20046;-53
2022/04/11 07:00:37;;;;;;;10.02;6.60;;;;;;;12.03;41.83;93936.31;5029263;28;20042;-52
2022/04/11 07:03:03;;;;;;;9.50;6.00;;;;;;;15.55;36.56;93931.16;5028710;28;20037;-51
2022/04/11 07:05:30;;;;;;;11.80;6.13;;;;;;;16.93;33.33;93927.75;5029204;28;20049;-52
2022/04/11 07:07:57;;;;;;;14.05;5.85;;;;;;;18.01;30.38;93934.41;5031294;28;20641;-55
2022/04/11 07:10:24;;;;;;;11.18;4.30;;;;;;;19.18;26.47;93923.97;5032696;28;20509;-50
2022/04/11 07:12:51;;;;;;;7.53;3.28;;;;;;;19.54;26.09;93931.31;5033159;28;20037;-50
2022/04/11 07:15:18;;;;;;;4.28;2.67;;;;;;;16.85;24.75;93924.50;5032448;28;20061;-54
2022/04/11 07:17:45;;;;;;;5.10;2.60;;;;;;;15.86;28.11;93927.75;5033242;28;20053;-49
2022/04/11 07:20:13;;;;;;;4.18;2.60;;;;;;;18.67;23.72;93920.75;5032383;28;20068;-49
2022/04/11 07:22:41;;;;;;;4.70;2.80;;;;;;;20.70;22.52;93910.25;5033190;28;20038;-51
2022/04/11 07:25:09;;;;;;;4.65;3.00;;;;;;;21.42;21.02;93904.22;5032241;28;20059;-49
2022/04/11 07:27:36;;;;;;;6.85;2.90;;;;;;;19.87;22.44;93903.41;5032795;28;20063;-54
2022/04/11 07:30:03;;;;;;;10.53;5.23;;;;;;;21.02;21.93;93897.31;5031700;28;20607;-48
2022/04/11 07:32:30;;;;;;;10.55;5.05;;;;;;;21.31;21.06;93899.25;5032570;28;20094;-51
2022/04/11 07:34:58;;;;;;;4.32;2.83;;;;;;;20.12;21.41;93907.69;5032970;28;20049;-53
2022/04/11 07:37:26;;;;;;;5.15;2.55;;;;;;;21.11;20.54;93905.56;5032898;28;20048;-53
2022/04/11 07:39:52;;;;;;;7.85;2.60;;;;;;;20.39;21.06;93899.56;5032995;28;20091;-54
2022/04/11 07:42:20;;;;;;;4.73;2.60;;;;;;;23.03;19.26;93913.38;5030870;28;20054;-51
2022/04/11 07:44:47;;;;;;;5.13;2.42;;;;;;;22.21;18.79;93910.78;5032645;28;20090;-46
2022/04/11 07:47:14;;;;;;;3.53;2.10;;;;;;;18.40;21.19;93909.69;5031945;28;20049;-47
2022/04/11 07:49:40;;;;;;;4.72;2.30;;;;;;;19.45;21.62;93909.88;5032568;28;20051;-49
2022/04/11 07:52:07;;;;;;;3.55;2.10;;;;;;;17.22;23.79;93905.19;5031736;28;20051;-54
2022/04/11 07:54:34;;;;;;;5.17;2.50;;;;;;;17.85;22.82;93919.63;5031333;28;20429;-51
2022/04/11 07:57:01;;;;;;;4.05;2.20;;;;;;;16.29;24.26;93917.09;5032176;28;20037;-51
2022/04/11 07:59:28;;;;;;;4.55;2.80;;;;;;;15.49;25.05;93912.78;5031576;28;20037;-49
2022/04/11 08:01:54;;;;;;;7.05;2.50;;;;;;;18.23;22.13;93921.16;5014401;28;20041;-46
2022/04/11 08:04:21;;;;;;;3.70;2.00;;;;;;;16.03;23.22;93916.47;5031320;28;20057;-48
2022/04/11 08:06:48;;;;;;;3.60;2.20;;;;;;;17.80;22.22;93920.19;5030841;28;20037;-52
2022/04/11 08:09:15;;;;;;;4.95;2.28;;;;;;;20.11;20.39;93922.88;5031566;28;20048;-48
2022/04/11 08:11:42;;;;;;;3.75;2.05;;;;;;;17.06;24.08;93917.31;5031011;28;20046;-52
2022/04/11 08:14:08;;;;;;;3.83;2.08;;;;;;;20.97;19.80;93928.69;5031204;28;20055;-50
2022/04/11 08:16:35;;;;;;;3.40;1.70;;;;;;;21.02;18.81;93919.63;5031821;28;20094;-49
2022/04/11 08:19:02;;;;;;;4.60;2.00;;;;;;;22.72;17.42;93917.69;5030855;28;20045;-49
2022/04/11 08:21:29;;;;;;;3.33;1.63;;;;;;;22.35;17.43;93914.78;5031152;28;20841;-51
2022/04/11 08:23:56;;;;;;;3.55;2.33;;;;;;;16.50;22.26;93915.50;5032193;28;20041;-55
2022/04/11 08:26:23;;;;;;;3.08;1.80;;;;;;;18.52;21.23;93920.59;5029925;28;20064;-54
2022/04/11 08:28:49;;;;;;;3.35;1.80;;;;;;;21.04;19.06;93905.97;5028978;28;20041;-47
2022/04/11 08:31:16;;;;;;;3.57;1.70;;;;;;;17.06;21.95;93914.53;5013881;28;20046;-46
2022/04/11 08:33:43;;;;;;;3.85;1.70;;;;;;;15.12;24.06;93915.22;5031679;28;20479;-48
2022/04/11 08:36:10;;;;;;;3.53;1.75;;;;;;;15.87;23.72;93907.13;5031094;28;20049;-47
2022/04/11 08:38:36;;;;;;;3.30;1.80;;;;;;;14.54;24.73;93908.69;5031087;28;20053;-51
2022/04/11 08:41:04;;;;;;;2.90;1.73;;;;;;;15.49;24.30;93904.50;5030952;28;20048;-46
2022/04/11 08:43:32;;;;;;;3.20;1.80;;;;;;;17.04;23.21;93897.59;5030139;28;20037;-45
2022/04/11 08:46:03;;;;;;;3.58;1.60;;;;;;;16.86;22.80;93900.31;5031573;28;20041;-49
2022/04/11 08:48:30;;;;;;;4.30;1.73;;;;;;;17.43;21.97;93898.00;5030434;28;21789;-45
2022/04/11 08:50:58;;;;;;;2.88;1.60;;;;;;;15.01;24.94;93890.69;5031473;28;20394;-48
2022/04/11 08:53:25;;;;;;;3.92;1.70;;;;;;;14.47;25.43;93894.34;5030459;28;20059;-52
2022/04/11 08:55:51;;;;;;;3.40;1.70;;;;;;;15.55;24.43;93895.19;5031153;28;20045;-51
2022/04/11 08:58:18;;;;;;;3.70;1.80;;;;;;;15.34;24.54;93890.41;5030469;28;20056;-53
2022/04/11 09:00:46;;;;;;;2.80;1.60;;;;;;;15.65;23.66;93895.25;5031002;28;20042;-51
2022/04/11 09:03:13;;;;;;;2.70;1.67;;;;;;;16.10;23.81;93885.78;5030381;28;20418;-50
2022/04/11 09:05:39;;;;;;;3.95;2.03;;;;;;;15.52;24.07;93882.25;5030801;28;20393;-51
2022/04/11 09:08:06;;;;;;;3.33;1.43;;;;;;;15.04;24.26;93889.03;5030384;28;20484;-52
2022/04/11 09:10:38;;;;;;;3.42;1.50;;;;;;;15.88;23.17;93888.56;5030802;28;20063;-49
2022/04/11 09:13:07;;;;;;;3.17;1.67;;;;;;;14.74;24.29;93891.16;5030490;28;20053;-48
2022/04/11 09:15:43;;;;;;;3.28;1.60;;;;;;;15.61;23.70;93886.31;5031030;28;20045;-50
2022/04/11 09:18:10;;;;;;;3.25;1.70;;;;;;;15.54;24.15;93882.56;5030312;28;20294;-49
2022/04/11 09:20:41;;;;;;;2.70;1.70;;;;;;;17.33;22.04;93882.56;5030720;28;20048;-51
2022/04/11 09:23:18;;;;;;;4.68;2.00;;;;;;;19.05;20.38;93874.84;5030016;28;20053;-50
2022/04/11 09:25:46;;;;;;;2.80;1.55;;;;;;;16.78;22.92;93877.59;5030473;28;20044;-51
2022/04/11 09:28:12;;;;;;;3.45;1.75;;;;;;;16.74;22.59;93872.22;5029765;28;20061;-49
2022/04/11 09:30:43;;;;;;;3.17;1.80;;;;;;;17.13;23.22;93872.66;5030518;28;20045;-51
2022/04/11 09:33:11;;;;;;;3.53;1.80;;;;;;;16.48;23.59;93877.22;5030072;28;20046;-52
2022/04/11 09:35:40;;;;;;;3.20;1.60;;;;;;;17.67;22.56;93875.97;5029256;28;20524;-51
2022/04/11 09:38:15;;;;;;;3.33;1.73;;;;;;;17.38;22.91;93865.28;5030148;28;20053;-50
2022/04/11 09:40:48;;;;;;;4.53;2.00;;;;;;;16.38;23.91;93867.31;5030514;28;20043;-53
2022/04/11 09:43:17;;;;;;;3.15;1.70;;;;;;;16.85;23.09;93869.06;5029637;28;20067;-52
2022/04/11 09:45:49;;;;;;;3.13;1.60;;;;;;;18.43;21.18;93855.94;5030321;28;20486;-52
2022/04/11 09:48:25;;;;;;;3.13;1.50;;;;;;;18.02;21.83;93866.56;5029524;28;20049;-55
2022/04/11 09:50:54;;;;;;;3.95;1.80;;;;;;;17.57;22.15;93871.66;5030348;28;20034;-56
2022/04/11 09:53:24;;;;;;;3.28;1.70;;;;;;;18.15;22.03;93873.47;5029386;28;20456;-53
2022/04/11 09:55:53;;;;;;;3.22;1.70;;;;;;;20.18;20.63;93862.44;5030182;28;20048;-54
2022/04/11 09:58:22;;;;;;;4.33;1.67;;;;;;;19.74;19.20;93855.59;5029085;28;20076;-54
2022/04/11 10:00:51;;;;;;;3.00;1.60;;;;;;;19.95;19.93;93853.69;5029756;28;20051;-56
2022/04/11 10:03:22;;;;;;;3.28;1.52;;;;;;;19.37;20.70;93850.25;5029309;28;20045;-49
2022/04/11 10:05:49;;;;;;;3.05;1.85;;;;;;;17.53;20.82;93852.38;5030062;28;20064;-48
2022/04/11 10:08:16;;;;;;;3.53;1.60;;;;;;;17.77;22.04;93860.06;5027888;28;20057;-51
2022/04/11 10:10:43;;;;;;;3.50;2.00;;;;;;;19.17;20.91;93850.84;5029841;28;20497;-56
2022/04/11 10:13:14;;;;;;;3.10;1.60;;;;;;;20.13;19.22;93850.72;5029251;28;20123;-54
2022/04/11 10:15:43;;;;;;;3.13;1.80;;;;;;;16.31;22.79;93851.72;5028583;28;20055;-52
2022/04/11 10:18:14;;;;;;;3.58;1.67;;;;;;;18.83;21.45;93838.97;5028990;28;20063;-49
2022/04/11 10:20:46;;;;;;;2.92;1.65;;;;;;;16.67;22.96;93847.56;5029867;28;20038;-49
2022/04/11 10:23:47;;;;;;;3.50;1.60;;;;;;;19.79;20.50;93843.78;5028642;28;21808;-48
2022/04/11 10:26:16;;;;;;;2.60;1.50;;;;;;;21.35;18.83;93849.56;5028963;28;20056;-53
2022/04/11 10:28:46;;;;;;;2.40;1.45;;;;;;;20.55;19.62;93844.06;5029536;28;20038;-48
2022/04/11 10:31:14;;;;;;;4.20;1.88;;;;;;;16.26;23.84;93841.25;5029136;28;20053;-55
2022/04/11 10:33:53;;;;;;;3.30;1.77;;;;;;;20.75;19.33;93837.81;5029890;28;20049;-51
2022/04/11 10:36:36;;;;;;;2.90;1.50;;;;;;;20.48;19.75;93838.91;5028738;28;20053;-55
2022/04/11 10:39:15;;;;;;;2.55;1.40;;;;;;;20.38;19.69;93845.81;5029275;28;20047;-52
2022/04/11 10:42:15;;;;;;;2.85;1.50;;;;;;;21.04;19.34;93832.66;5033134;28;20045;-55
2022/04/11 10:44:46;;;;;;;3.38;1.55;;;;;;;21.27;18.95;93833.72;5025576;28;20041;-52
2022/04/11 10:47:16;;;;;;;2.47;1.50;;;;;;;18.87;21.61;93838.81;5035640;28;20045;-52
2022/04/11 10:49:49;;;;;;;3.20;1.50;;;;;;;19.32;20.74;93839.78;5036205;28;20043;-50
2022/04/11 10:52:35;;;;;;;3.22;1.50;;;;;;;20.65;19.90;93833.63;5035541;28;20052;-53
2022/04/11 10:55:07;;;;;;;3.05;1.50;;;;;;;22.10;17.66;93824.81;5036278;28;20556;-52
2022/04/11 10:57:34;;;;;;;3.30;1.52;;;;;;;24.11;17.65;93823.00;5034545;28;20636;-52
2022/04/11 11:00:06;;;;;;;2.80;1.40;;;;;;;25.35;15.55;93827.09;5035810;28;20044;-50
2022/04/11 11:02:48;;;;;;;3.03;1.60;;;;;;;22.70;17.21;93824.34;5034940;28;22053;-51
2022/04/11 11:05:31;;;;;;;3.53;1.50;;;;;;;23.45;17.63;93816.66;5034046;28;20053;-47
2022/04/11 11:08:10;;;;;;;4.90;1.83;;;;;;;23.14;17.98;93823.13;5035793;28;20041;-49
2022/04/11 11:10:49;;;;;;;3.08;1.70;;;;;;;21.80;18.24;93821.44;5034771;28;20848;-51
2022/04/11 11:13:27;;;;;;;2.92;1.67;;;;;;;20.04;19.64;93816.59;5035261;28;20047;-49
2022/04/11 11:15:56;;;;;;;3.63;1.90;;;;;;;18.73;21.34;93816.00;5035660;28;20045;-51
2022/04/11 11:18:23;;;;;;;3.30;1.80;;;;;;;16.94;23.65;93818.41;5035115;28;20057;-55
2022/04/11 11:20:53;;;;;;;4.03;2.22;;;;;;;15.02;26.50;93808.56;5035782;28;20059;-49
2022/04/11 11:23:23;;;;;;;3.70;1.90;;;;;;;15.92;25.27;93798.63;5035048;28;20122;-52
2022/04/11 11:25:50;;;;;;;4.45;2.00;;;;;;;17.73;23.98;93806.72;5034581;28;20501;-53
2022/04/11 11:28:18;;;;;;;3.50;2.10;;;;;;;18.36;23.23;93793.91;5034885;28;20123;-52
2022/04/11 11:30:45;;;;;;;3.97;2.17;;;;;;;18.34;23.35;93787.31;5035724;28;20055;-51